Hovedside
METAR-TAF:

METAR-TAF

Lufthavner :

Tartu, Estland

Tartu lufthavn

breddegrad: 58-18N, lengdegrad: 026-44E, høyde over havet: 59 m

Gjeldene værobservasjon

Denne rapporten ble laget for 52 minutter siden, klokken 03:50 UTC
Vind 10 kt fra Sør-sørøst
Temperatur 2°C
Luftfuktighet 75%
Trykk 1004 hPa
Sikt 10 km eller mer
lett regn

METAR: EETU 250350Z AUTO 16010KT 9999 -RA FEW021/// BKN034/// BKN053/// 02/M02 Q1004 REUP

Tid: 07:42 (04:42 UTC)

Varsel

Denne rapporten ble laget for 8 timer og 42 minutter siden, klokken 20:00 UTC
Varsel gyldig fra 24. klokken 21 UTC til 25. klokken 03 UTC
Vind 8 kt fra Sør-sørøst
Sikt 10 km eller mer
ingen skyer under 1500 m og ingen bygeskyer
Blir
fra 25. klokken 01 UTC til 25. klokken 03 UTC
Sikt: 6000 m
Brutte skyer i en høyde av 1500 ft
snø, regn

TAF: EETU 242000Z 2421/2503 16008KT CAVOK BECMG 2501/2503 6000 SNRA BKN015

Værobservasjoner og værvarsel for over 4000 flyplasser (METAR- og TAF-rapporter).

Tilgjengelige stasjoner er representert av de røde og gule prikkene på kartet.

Hold musepekeren over prikken for å se navnet på stasjonen.

Klikk så for å se værobservasjoner og -varsler.

For å forandre kartet kan du klikke på den grønne knappen med svart kryss for å zoome inn, på den grønne knappen med strek for å zoome ut, eller på de grønne pilene for å se tilstøtende kart.


METAR-TAF: